createdAt,value
2023-04-28T00:00:32.674Z,0
2023-04-28T00:02:13.055Z,0
2023-04-28T00:03:53.575Z,0
2023-04-28T00:05:33.789Z,0
2023-04-28T00:07:14.053Z,0
2023-04-28T00:08:54.387Z,0
2023-04-28T00:10:34.825Z,0
2023-04-28T00:12:15.264Z,0
2023-04-28T00:13:55.680Z,0
2023-04-28T00:15:36.139Z,0
2023-04-28T00:17:16.608Z,0
2023-04-28T00:18:57.006Z,0
2023-04-28T00:20:37.361Z,0
2023-04-28T00:22:17.733Z,0
2023-04-28T00:23:58.140Z,0
2023-04-28T00:25:38.547Z,0
2023-04-28T00:27:18.950Z,0
2023-04-28T00:28:59.301Z,0
2023-04-28T00:30:39.662Z,0
2023-04-28T00:32:20.058Z,0
2023-04-28T00:34:00.475Z,0
2023-04-28T00:35:40.821Z,0
2023-04-28T00:37:21.194Z,0
2023-04-28T00:39:01.522Z,0
2023-04-28T00:40:41.918Z,0
2023-04-28T00:42:22.254Z,0
2023-04-28T00:44:02.601Z,0
2023-04-28T00:45:42.970Z,0
2023-04-28T00:47:23.370Z,0
2023-04-28T00:49:03.656Z,0
2023-04-28T00:50:44.116Z,0
2023-04-28T00:52:24.470Z,0
2023-04-28T00:54:04.868Z,0
2023-04-28T00:55:45.303Z,0
2023-04-28T00:57:25.674Z,0
2023-04-28T00:59:06.038Z,0
2023-04-28T01:00:46.437Z,0
2023-04-28T01:02:26.987Z,0
2023-04-28T01:04:07.784Z,0
2023-04-28T01:05:47.632Z,0
2023-04-28T01:07:28.018Z,0
2023-04-28T01:09:08.428Z,0
2023-04-28T01:10:48.826Z,0
2023-04-28T01:12:29.249Z,0
2023-04-28T01:14:09.674Z,0
2023-04-28T01:15:50.073Z,0
2023-04-28T01:17:30.585Z,0
2023-04-28T01:19:11.014Z,0
2023-04-28T01:20:51.385Z,0
2023-04-28T01:22:31.760Z,0
2023-04-28T01:24:12.188Z,0
2023-04-28T01:25:52.625Z,0
2023-04-28T01:27:33.026Z,0
2023-04-28T01:29:13.424Z,0
2023-04-28T01:30:53.787Z,0
2023-04-28T01:32:34.313Z,0
2023-04-28T01:34:14.784Z,0
2023-04-28T01:35:55.022Z,0
2023-04-28T01:37:35.366Z,0
2023-04-28T01:39:15.800Z,0
2023-04-28T01:40:56.123Z,0
2023-04-28T01:42:36.430Z,0
2023-04-28T01:44:17.105Z,0
2023-04-28T01:45:57.128Z,0
2023-04-28T01:47:37.512Z,0
2023-04-28T01:49:17.878Z,0
2023-04-28T01:50:58.233Z,0
2023-04-28T01:52:38.639Z,0
2023-04-28T01:54:19.184Z,0
2023-04-28T01:55:59.395Z,0
2023-04-28T01:57:39.847Z,0
2023-04-28T01:59:20.240Z,0
2023-04-28T02:01:00.666Z,0
2023-04-28T02:02:41.117Z,0
2023-04-28T02:04:21.595Z,0
2023-04-28T02:06:01.941Z,0
2023-04-28T02:07:42.280Z,0
2023-04-28T02:09:22.585Z,0
2023-04-28T02:11:03.058Z,0
2023-04-28T02:12:43.536Z,0
2023-04-28T02:14:23.832Z,0
2023-04-28T02:16:04.188Z,0
2023-04-28T02:17:44.560Z,0
2023-04-28T02:19:24.773Z,0
2023-04-28T02:21:05.168Z,0
2023-04-28T02:22:45.540Z,0
2023-04-28T02:24:25.892Z,0
2023-04-28T02:26:06.249Z,0
2023-04-28T02:27:46.596Z,0
2023-04-28T02:29:27.021Z,0
2023-04-28T02:31:07.585Z,0
2023-04-28T02:32:47.887Z,0
2023-04-28T02:34:28.290Z,0
2023-04-28T02:36:08.743Z,0
2023-04-28T02:37:49.110Z,0
2023-04-28T02:39:29.540Z,0
2023-04-28T02:41:09.943Z,0
2023-04-28T02:42:50.334Z,0
2023-04-28T02:44:30.717Z,0
2023-04-28T02:46:11.135Z,0
2023-04-28T02:47:51.556Z,0
2023-04-28T02:49:31.922Z,0
2023-04-28T02:51:12.276Z,0
2023-04-28T02:52:52.708Z,0
2023-04-28T02:54:33.193Z,0
2023-04-28T02:56:13.531Z,0
2023-04-28T02:57:53.863Z,0
2023-04-28T02:59:34.140Z,0
2023-04-28T03:01:14.523Z,0
2023-04-28T03:02:55.064Z,0
2023-04-28T03:04:35.132Z,0
2023-04-28T03:06:15.417Z,0
2023-04-28T03:07:55.802Z,0
2023-04-28T03:09:36.214Z,0
2023-04-28T03:11:16.662Z,0
2023-04-28T03:12:57.079Z,0
2023-04-28T03:14:37.451Z,0
2023-04-28T03:16:17.923Z,0
2023-04-28T03:17:58.369Z,0
2023-04-28T03:19:38.688Z,0
2023-04-28T03:21:19.112Z,1
2023-04-28T03:22:59.554Z,1
2023-04-28T03:24:39.897Z,1
2023-04-28T03:26:20.309Z,1
2023-04-28T03:28:00.736Z,1
2023-04-28T03:29:41.148Z,2
2023-04-28T03:31:21.558Z,2
2023-04-28T03:33:01.997Z,2
2023-04-28T03:34:42.396Z,3
2023-04-28T03:36:22.800Z,4
2023-04-28T03:38:03.187Z,6
2023-04-28T03:39:43.505Z,7
2023-04-28T03:41:23.861Z,9
2023-04-28T03:43:05.001Z,11
2023-04-28T03:44:44.629Z,14
2023-04-28T03:46:25.048Z,18
2023-04-28T03:48:05.503Z,22
2023-04-28T03:49:45.779Z,27
2023-04-28T03:51:26.131Z,32
2023-04-28T03:53:06.573Z,39
2023-04-28T03:54:46.894Z,48
2023-04-28T03:56:27.275Z,57
2023-04-28T03:58:07.736Z,63
2023-04-28T03:59:48.249Z,72
2023-04-28T04:01:28.634Z,84
2023-04-28T04:03:09.295Z,101
2023-04-28T04:04:49.790Z,119
2023-04-28T04:06:29.840Z,140
2023-04-28T04:08:10.219Z,166
2023-04-28T04:09:50.550Z,199
2023-04-28T04:11:30.943Z,229
2023-04-28T04:13:11.349Z,256
2023-04-28T04:14:51.827Z,286
2023-04-28T04:16:32.245Z,321
2023-04-28T04:18:12.541Z,385
2023-04-28T04:19:52.844Z,476
2023-04-28T04:21:33.138Z,547
2023-04-28T04:23:13.538Z,569
2023-04-28T04:24:53.974Z,587
2023-04-28T04:26:34.225Z,609
2023-04-28T04:28:14.607Z,640
2023-04-28T04:29:55.074Z,693
2023-04-28T04:31:35.461Z,760
2023-04-28T04:33:15.828Z,820
2023-04-28T04:34:56.268Z,902
2023-04-28T04:36:36.718Z,982
2023-04-28T04:38:17.134Z,955
2023-04-28T04:39:57.477Z,889
2023-04-28T04:41:37.860Z,819
2023-04-28T04:43:18.175Z,792
2023-04-28T04:44:58.507Z,819
2023-04-28T04:46:39.046Z,873
2023-04-28T04:48:19.353Z,981
2023-04-28T04:49:59.733Z,999
2023-04-28T04:51:40.216Z,999
2023-04-28T04:53:20.561Z,999
2023-04-28T04:55:00.917Z,999
2023-04-28T04:56:41.313Z,999
2023-04-28T04:58:21.758Z,999
2023-04-28T05:00:02.119Z,999
2023-04-28T05:01:42.505Z,999
2023-04-28T05:03:22.891Z,999
2023-04-28T05:05:12.789Z,999
2023-04-28T05:06:43.683Z,999
2023-04-28T05:08:24.062Z,999
2023-04-28T05:10:04.461Z,999
2023-04-28T05:11:44.970Z,999
2023-04-28T05:13:25.380Z,999
2023-04-28T05:15:05.818Z,999
2023-04-28T05:16:46.329Z,999
2023-04-28T05:18:26.702Z,999
2023-04-28T05:20:07.077Z,999
2023-04-28T05:21:47.586Z,999
2023-04-28T05:23:28.010Z,999
2023-04-28T05:25:08.453Z,999
2023-04-28T05:26:48.854Z,999
2023-04-28T05:28:29.270Z,999
2023-04-28T05:30:09.649Z,999
2023-04-28T05:31:50.070Z,999
2023-04-28T05:33:30.343Z,999
2023-04-28T05:35:10.752Z,999
2023-04-28T05:36:51.200Z,999
2023-04-28T05:38:31.539Z,999
2023-04-28T05:40:12.074Z,999
2023-04-28T05:41:52.404Z,999
2023-04-28T05:43:32.833Z,999
2023-04-28T05:45:13.282Z,999
2023-04-28T05:46:53.768Z,999
2023-04-28T05:48:34.061Z,999
2023-04-28T05:50:14.477Z,999
2023-04-28T05:51:54.942Z,999
2023-04-28T05:53:35.329Z,999
2023-04-28T05:55:15.783Z,999
2023-04-28T05:56:56.254Z,999
2023-04-28T05:58:36.641Z,999
2023-04-28T06:00:17.039Z,999
2023-04-28T06:01:57.441Z,999
2023-04-28T06:03:38.020Z,999
2023-04-28T06:05:18.365Z,999
2023-04-28T06:06:58.451Z,999
2023-04-28T06:08:38.732Z,999
2023-04-28T06:10:19.087Z,999
2023-04-28T06:11:59.538Z,999
2023-04-28T06:13:39.964Z,999
2023-04-28T06:15:20.485Z,999
2023-04-28T06:17:00.788Z,999
2023-04-28T06:18:41.251Z,999
2023-04-28T06:20:21.732Z,999
2023-04-28T06:22:02.148Z,999
2023-04-28T06:23:42.522Z,999
2023-04-28T06:25:22.939Z,999
2023-04-28T06:27:03.390Z,999
2023-04-28T06:28:43.796Z,999
2023-04-28T06:30:24.251Z,999
2023-04-28T06:32:04.625Z,999
2023-04-28T06:33:45.007Z,999
2023-04-28T06:35:25.440Z,999
2023-04-28T06:37:05.859Z,999
2023-04-28T06:38:46.234Z,999
2023-04-28T06:40:26.617Z,999
2023-04-28T06:42:06.922Z,999
2023-04-28T06:43:47.236Z,999
2023-04-28T06:45:27.543Z,999
2023-04-28T06:47:07.950Z,999
2023-04-28T06:48:48.215Z,999
2023-04-28T06:50:28.635Z,999
2023-04-28T06:52:09.019Z,999
2023-04-28T06:53:49.507Z,999
2023-04-28T06:55:29.914Z,999
2023-04-28T06:57:10.264Z,999
2023-04-28T06:58:50.656Z,999
2023-04-28T07:00:31.047Z,999
2023-04-28T07:02:11.450Z,999
2023-04-28T07:03:51.886Z,999
2023-04-28T07:05:32.259Z,999
2023-04-28T07:07:12.629Z,999
2023-04-28T07:08:53.078Z,999
2023-04-28T07:10:33.479Z,999
2023-04-28T07:12:13.874Z,999
2023-04-28T07:13:54.389Z,999
2023-04-28T07:15:34.705Z,999
2023-04-28T07:17:15.074Z,999
2023-04-28T07:18:55.536Z,999
2023-04-28T07:20:35.974Z,999
2023-04-28T07:22:16.271Z,999
2023-04-28T07:23:56.660Z,999
2023-04-28T07:25:36.980Z,999
2023-04-28T07:27:17.307Z,999
2023-04-28T07:28:57.584Z,999
2023-04-28T07:30:37.951Z,999
2023-04-28T07:32:18.401Z,999
2023-04-28T07:33:58.511Z,999
2023-04-28T07:35:38.812Z,999
2023-04-28T07:37:19.135Z,999
2023-04-28T07:38:59.416Z,999
2023-04-28T07:40:39.717Z,999
2023-04-28T07:42:20.033Z,999
2023-04-28T07:50:47.824Z,999
2023-04-28T07:52:28.228Z,999
2023-04-28T07:54:08.701Z,999
2023-04-28T07:55:49.068Z,999
2023-04-28T07:57:29.471Z,999
2023-04-28T07:59:09.765Z,999
2023-04-28T08:00:50.216Z,999
2023-04-28T08:02:30.824Z,999
2023-04-28T08:04:11.457Z,999
2023-04-28T08:05:51.562Z,999
2023-04-28T08:07:31.788Z,999
2023-04-28T08:09:12.219Z,999
2023-04-28T08:10:52.560Z,999
2023-04-28T08:12:32.901Z,999
2023-04-28T08:14:13.334Z,999
2023-04-28T08:15:53.748Z,999
2023-04-28T08:17:34.209Z,999
2023-04-28T08:19:14.617Z,999
2023-04-28T08:20:55.075Z,999
2023-04-28T08:22:35.500Z,999
2023-04-28T08:24:16.103Z,999
2023-04-28T08:25:56.403Z,999
2023-04-28T08:27:36.779Z,999
2023-04-28T08:29:17.164Z,999
2023-04-28T08:30:57.557Z,999
2023-04-28T08:32:38.025Z,999
2023-04-28T08:34:18.842Z,999
2023-04-28T08:35:58.901Z,999
2023-04-28T08:37:39.341Z,999
2023-04-28T08:39:19.724Z,999
2023-04-28T08:41:00.150Z,999
2023-04-28T08:42:40.591Z,999
2023-04-28T08:44:21.012Z,999
2023-04-28T08:46:01.404Z,999
2023-04-28T08:47:41.948Z,999
2023-04-28T08:49:22.298Z,999
2023-04-28T08:51:02.676Z,999
2023-04-28T08:52:43.081Z,999
2023-04-28T08:54:26.913Z,999
2023-04-28T08:56:03.865Z,999
2023-04-28T08:57:44.350Z,999
2023-04-28T08:59:24.740Z,999
2023-04-28T09:01:05.159Z,999
2023-04-28T09:02:45.680Z,999
2023-04-28T09:04:26.737Z,999
2023-04-28T09:06:06.378Z,999
2023-04-28T09:07:46.844Z,999
2023-04-28T09:09:27.245Z,999
2023-04-28T09:11:07.619Z,999
2023-04-28T09:12:48.086Z,999
2023-04-28T09:14:28.521Z,999
2023-04-28T09:16:08.926Z,999
2023-04-28T09:17:49.349Z,999
2023-04-28T09:19:29.671Z,999
2023-04-28T09:21:10.102Z,999
2023-04-28T09:22:50.587Z,999
2023-04-28T09:24:30.931Z,999
2023-04-28T09:26:11.374Z,999
2023-04-28T09:27:51.766Z,999
2023-04-28T09:29:32.290Z,999
2023-04-28T09:31:12.696Z,999
2023-04-28T09:32:53.194Z,999
2023-04-28T09:34:33.605Z,999
2023-04-28T09:36:14.029Z,999
2023-04-28T09:37:54.463Z,999
2023-04-28T09:39:34.846Z,999
2023-04-28T09:41:15.267Z,999
2023-04-28T09:42:55.622Z,999
2023-04-28T09:44:35.978Z,999
2023-04-28T09:46:16.578Z,999
2023-04-28T09:47:56.807Z,999
2023-04-28T09:49:37.156Z,999
2023-04-28T09:51:17.553Z,999
2023-04-28T09:52:57.942Z,999
2023-04-28T09:54:38.478Z,999
2023-04-28T09:56:18.870Z,999
2023-04-28T09:57:59.321Z,999
2023-04-28T09:59:39.741Z,999
2023-04-28T10:01:25.747Z,999
2023-04-28T10:03:06.252Z,999
2023-04-28T10:04:46.653Z,999
2023-04-28T10:06:26.765Z,999
2023-04-28T10:08:07.153Z,999
2023-04-28T10:09:47.606Z,999
2023-04-28T10:11:28.028Z,999
2023-04-28T10:13:08.463Z,999
2023-04-28T10:14:48.738Z,999
2023-04-28T10:16:29.229Z,999
2023-04-28T10:18:09.614Z,999
2023-04-28T10:19:50.037Z,999
2023-04-28T10:21:30.463Z,999
2023-04-28T10:23:10.846Z,999
2023-04-28T10:24:51.357Z,999
2023-04-28T10:26:31.783Z,999
2023-04-28T10:28:12.252Z,999
2023-04-28T10:29:52.685Z,999
2023-04-28T10:31:33.109Z,999
2023-04-28T10:33:13.749Z,999
2023-04-28T10:34:53.964Z,999
2023-04-28T10:36:36.464Z,999
2023-04-28T10:38:14.777Z,999
2023-04-28T10:39:55.195Z,999
2023-04-28T10:41:35.535Z,999
2023-04-28T10:43:15.970Z,999
2023-04-28T10:44:56.368Z,999
2023-04-28T10:46:36.783Z,999
2023-04-28T10:48:17.107Z,999
2023-04-28T10:49:57.726Z,999
2023-04-28T10:51:38.076Z,999
2023-04-28T10:53:18.451Z,999
2023-04-28T10:54:58.940Z,999
2023-04-28T10:56:41.858Z,999
2023-04-28T10:58:19.898Z,999
2023-04-28T11:00:00.334Z,999
2023-04-28T11:01:40.801Z,999
2023-04-28T11:03:21.349Z,999
2023-04-28T11:05:01.631Z,999
2023-04-28T11:06:41.949Z,999
2023-04-28T11:08:22.346Z,999
2023-04-28T11:10:02.708Z,999
2023-04-28T11:11:43.065Z,999
2023-04-28T11:13:23.482Z,999
2023-04-28T11:15:03.954Z,999
2023-04-28T11:16:44.547Z,999
2023-04-28T11:18:24.765Z,999
2023-04-28T11:20:05.199Z,999
2023-04-28T11:21:45.591Z,999
2023-04-28T11:23:26.039Z,999
2023-04-28T11:25:06.407Z,999
2023-04-28T11:26:46.814Z,999
2023-04-28T11:28:27.116Z,999
2023-04-28T11:30:07.643Z,999
2023-04-28T11:31:48.049Z,999
2023-04-28T11:33:28.433Z,999
2023-04-28T11:35:08.865Z,999
2023-04-28T11:36:49.284Z,999
2023-04-28T11:38:29.693Z,999
2023-04-28T11:40:10.184Z,999
2023-04-28T11:41:50.527Z,999
2023-04-28T11:43:43.641Z,999
2023-04-28T11:45:11.308Z,999
2023-04-28T11:46:51.790Z,999
2023-04-28T11:48:32.118Z,999
2023-04-28T11:50:12.466Z,999
2023-04-28T11:51:52.899Z,999
2023-04-28T11:53:33.343Z,999
2023-04-28T11:55:13.741Z,999
2023-04-28T11:56:54.186Z,999
2023-04-28T11:58:34.679Z,999
2023-04-28T12:00:15.243Z,999
2023-04-28T12:01:55.473Z,999
2023-04-28T12:03:36.029Z,999
2023-04-28T12:05:16.394Z,999
2023-04-28T12:06:56.768Z,999
2023-04-28T12:08:37.270Z,999
2023-04-28T12:10:17.767Z,999
2023-04-28T12:11:58.151Z,999
2023-04-28T12:13:38.605Z,999
2023-04-28T12:15:20.750Z,999
2023-04-28T12:16:59.452Z,999
2023-04-28T12:18:39.786Z,999
2023-04-28T12:20:20.129Z,999
2023-04-28T12:22:00.513Z,999
2023-04-28T12:23:40.957Z,999
2023-04-28T12:25:21.259Z,999
2023-04-28T12:27:01.704Z,999
2023-04-28T12:28:42.116Z,999
2023-04-28T12:30:22.504Z,999
2023-04-28T12:32:02.924Z,999
2023-04-28T12:33:43.290Z,999
2023-04-28T12:35:23.788Z,999
2023-04-28T12:37:04.178Z,999
2023-04-28T12:38:44.567Z,999
2023-04-28T12:40:24.890Z,999
2023-04-28T12:42:05.353Z,999
2023-04-28T12:43:45.792Z,999
2023-04-28T12:45:26.257Z,999
2023-04-28T12:47:06.682Z,999
2023-04-28T12:48:47.119Z,999
2023-04-28T12:50:27.516Z,999
2023-04-28T12:52:07.943Z,999
2023-04-28T12:53:48.199Z,999
2023-04-28T12:55:28.655Z,999
2023-04-28T12:57:09.117Z,999
2023-04-28T12:58:49.564Z,999
2023-04-28T13:00:29.928Z,999
2023-04-28T13:02:10.343Z,999
2023-04-28T13:03:50.810Z,999
2023-04-28T13:05:31.231Z,999
2023-04-28T13:07:11.680Z,999
2023-04-28T13:08:52.058Z,999
2023-04-28T13:10:32.458Z,999
2023-04-28T13:12:12.997Z,999
2023-04-28T13:13:53.392Z,999
2023-04-28T13:15:33.760Z,999
2023-04-28T13:17:14.168Z,999
2023-04-28T13:18:54.563Z,999
2023-04-28T13:20:35.006Z,999
2023-04-28T13:22:15.331Z,999
2023-04-28T13:23:55.646Z,999
2023-04-28T13:25:36.055Z,999
2023-04-28T13:27:16.417Z,999
2023-04-28T13:28:56.839Z,999
2023-04-28T13:30:37.332Z,999
2023-04-28T13:32:17.701Z,999
2023-04-28T13:33:58.039Z,999
2023-04-28T13:35:38.510Z,999
2023-04-28T13:37:18.872Z,999
2023-04-28T13:39:01.649Z,999
2023-04-28T13:40:39.882Z,999
2023-04-28T13:42:20.305Z,999
2023-04-28T13:44:00.694Z,999
2023-04-28T13:45:41.178Z,999
2023-04-28T13:47:21.620Z,999
2023-04-28T13:49:01.969Z,999
2023-04-28T13:50:42.492Z,999
2023-04-28T13:52:22.805Z,999
2023-04-28T13:54:03.058Z,999
2023-04-28T13:55:43.384Z,999
2023-04-28T13:57:23.731Z,999
2023-04-28T13:59:04.132Z,999
2023-04-28T14:00:44.539Z,999
2023-04-28T14:02:25.128Z,999
2023-04-28T14:04:05.729Z,999
2023-04-28T14:05:49.765Z,999
2023-04-28T14:07:26.262Z,999
2023-04-28T14:09:06.705Z,999
2023-04-28T14:10:47.125Z,999
2023-04-28T14:12:27.583Z,999
2023-04-28T14:14:07.972Z,999
2023-04-28T14:15:59.130Z,999
2023-04-28T14:17:28.855Z,999
2023-04-28T14:19:09.260Z,999
2023-04-28T14:20:49.742Z,999
2023-04-28T14:22:30.130Z,999
2023-04-28T14:24:13.612Z,999
2023-04-28T14:25:51.070Z,999
2023-04-28T14:27:31.504Z,999
2023-04-28T14:29:11.935Z,999
2023-04-28T14:30:52.447Z,999
2023-04-28T14:32:32.937Z,999
2023-04-28T14:34:13.253Z,999
2023-04-28T14:35:53.667Z,999
2023-04-28T14:37:34.020Z,999
2023-04-28T14:39:14.364Z,999
2023-04-28T14:40:54.728Z,999
2023-04-28T14:42:35.183Z,999
2023-04-28T14:44:15.528Z,999
2023-04-28T14:45:55.976Z,999
2023-04-28T14:47:36.404Z,999
2023-04-28T14:49:22.975Z,999
2023-04-28T14:51:03.414Z,999
2023-04-28T14:52:43.796Z,999
2023-04-28T14:54:24.150Z,999
2023-04-28T14:56:17.291Z,999
2023-04-28T14:57:44.781Z,999
2023-04-28T14:59:25.187Z,999
2023-04-28T15:01:05.610Z,999
2023-04-28T15:02:46.074Z,999
2023-04-28T15:04:26.460Z,999
2023-04-28T15:06:06.674Z,999
2023-04-28T15:07:47.051Z,999
2023-04-28T15:09:27.387Z,999
2023-04-28T15:11:07.765Z,999
2023-04-28T15:12:48.137Z,999
2023-04-28T15:14:28.610Z,999
2023-04-28T15:16:09.014Z,999
2023-04-28T15:17:49.362Z,999
2023-04-28T15:19:29.710Z,999
2023-04-28T15:21:10.186Z,999
2023-04-28T15:22:50.604Z,999
2023-04-28T15:24:31.063Z,999
2023-04-28T15:26:11.431Z,999
2023-04-28T15:27:51.829Z,999
2023-04-28T15:29:32.239Z,999
2023-04-28T15:31:15.678Z,999
2023-04-28T15:32:53.167Z,999
2023-04-28T15:34:33.509Z,999
2023-04-28T15:36:14.033Z,999
2023-04-28T15:37:54.376Z,999
2023-04-28T15:39:34.768Z,999
2023-04-28T15:41:15.165Z,999
2023-04-28T15:42:55.619Z,999
2023-04-28T15:44:36.088Z,999
2023-04-28T15:46:16.600Z,999
2023-04-28T15:47:56.953Z,999
2023-04-28T15:49:37.387Z,999
2023-04-28T15:51:17.767Z,999
2023-04-28T15:53:05.288Z,999
2023-04-28T15:54:38.654Z,999
2023-04-28T15:56:19.746Z,999
2023-04-28T15:57:59.514Z,999
2023-04-28T15:59:39.952Z,999
2023-04-28T16:01:20.412Z,999
2023-04-28T16:03:00.937Z,999
2023-04-28T16:04:41.308Z,999
2023-04-28T16:06:21.603Z,999
2023-04-28T16:08:02.049Z,999
2023-04-28T16:09:42.474Z,999
2023-04-28T16:11:22.894Z,999
2023-04-28T16:13:03.251Z,999
2023-04-28T16:14:43.616Z,999
2023-04-28T16:16:24.126Z,999
2023-04-28T16:18:04.368Z,999
2023-04-28T16:19:44.744Z,999
2023-04-28T16:21:25.184Z,999
2023-04-28T16:23:05.624Z,999
2023-04-28T16:24:45.968Z,999
2023-04-28T16:26:26.443Z,999
2023-04-28T16:28:06.930Z,999
2023-04-28T16:29:47.333Z,999
2023-04-28T16:31:27.796Z,999
2023-04-28T16:33:08.352Z,999
2023-04-28T16:34:48.890Z,999
2023-04-28T16:36:29.158Z,999
2023-04-28T16:38:09.555Z,999
2023-04-28T16:39:50.116Z,999
2023-04-28T16:41:30.307Z,999
2023-04-28T16:43:10.801Z,999
2023-04-28T16:44:52.770Z,999
2023-04-28T16:46:34.708Z,999
2023-04-28T16:48:12.124Z,999
2023-04-28T16:49:53.001Z,999
2023-04-28T16:51:33.101Z,999
2023-04-28T16:53:13.535Z,999
2023-04-28T16:54:53.902Z,999
2023-04-28T16:56:34.317Z,999
2023-04-28T16:58:14.715Z,999
2023-04-28T16:59:55.129Z,999
2023-04-28T17:01:35.593Z,999
2023-04-28T17:03:16.453Z,999
2023-04-28T17:04:56.513Z,999
2023-04-28T17:06:36.976Z,999
2023-04-28T17:08:17.437Z,999
2023-04-28T17:09:57.803Z,999
2023-04-28T17:11:38.273Z,999
2023-04-28T17:13:21.737Z,999
2023-04-28T17:14:59.035Z,999
2023-04-28T17:16:39.428Z,999
2023-04-28T17:18:19.865Z,999
2023-04-28T17:20:00.269Z,999
2023-04-28T17:21:40.793Z,999
2023-04-28T17:23:21.192Z,999
2023-04-28T17:25:01.614Z,999
2023-04-28T17:26:42.018Z,999
2023-04-28T17:28:22.490Z,999
2023-04-28T17:30:02.866Z,999
2023-04-28T17:31:43.277Z,999
2023-04-28T17:33:23.656Z,999
2023-04-28T17:35:03.993Z,999
2023-04-28T17:36:44.427Z,999
2023-04-28T17:38:24.793Z,999
2023-04-28T17:40:05.137Z,999
2023-04-28T17:41:45.561Z,999
2023-04-28T17:43:25.941Z,999
2023-04-28T17:45:06.346Z,999
2023-04-28T17:46:46.733Z,999
2023-04-28T17:48:27.133Z,999
2023-04-28T17:50:07.520Z,999
2023-04-28T17:51:47.985Z,999
2023-04-28T17:53:28.314Z,999
2023-04-28T17:55:08.680Z,941
2023-04-28T17:56:56.259Z,892
2023-04-28T17:58:29.624Z,791
2023-04-28T18:00:10.125Z,816
2023-04-28T18:01:50.612Z,999
2023-04-28T18:03:31.092Z,999
2023-04-28T18:05:11.728Z,999
2023-04-28T18:06:51.877Z,945
2023-04-28T18:08:32.228Z,844
2023-04-28T18:10:12.653Z,895
2023-04-28T18:11:53.066Z,655
2023-04-28T18:13:33.523Z,480
2023-04-28T18:15:13.870Z,377
2023-04-28T18:16:54.291Z,287
2023-04-28T18:18:35.614Z,252
2023-04-28T18:20:15.147Z,208
2023-04-28T18:21:55.498Z,216
2023-04-28T18:23:35.919Z,227
2023-04-28T18:25:16.249Z,221
2023-04-28T18:26:56.780Z,232
2023-04-28T18:28:37.137Z,220
2023-04-28T18:30:17.546Z,199
2023-04-28T18:31:57.964Z,233
2023-04-28T18:33:38.499Z,306
2023-04-28T18:35:18.786Z,313
2023-04-28T18:36:59.253Z,326
2023-04-28T18:38:42.781Z,293
2023-04-28T18:40:20.077Z,254
2023-04-28T18:42:03.480Z,216
2023-04-28T18:43:40.920Z,179
2023-04-28T18:45:21.290Z,142
2023-04-28T18:47:01.712Z,110
2023-04-28T18:48:42.094Z,90
2023-04-28T18:50:22.467Z,75
2023-04-28T18:52:02.878Z,59
2023-04-28T18:53:43.309Z,44
2023-04-28T18:55:23.720Z,28
2023-04-28T18:57:04.122Z,18
2023-04-28T18:58:44.575Z,12
2023-04-28T19:00:24.914Z,10
2023-04-28T19:02:05.288Z,9
2023-04-28T19:03:45.936Z,8
2023-04-28T19:05:26.179Z,8
2023-04-28T19:07:06.571Z,6
2023-04-28T19:08:47.031Z,4
2023-04-28T19:10:27.441Z,2
2023-04-28T19:12:07.864Z,2
2023-04-28T19:13:51.316Z,2
2023-04-28T19:15:28.579Z,2
2023-04-28T19:17:08.953Z,1
2023-04-28T19:18:49.218Z,1
2023-04-28T19:20:29.678Z,1
2023-04-28T19:22:10.069Z,1
2023-04-28T19:23:50.519Z,1
2023-04-28T19:25:30.982Z,1
2023-04-28T19:27:18.440Z,1
2023-04-28T19:28:51.816Z,0
2023-04-28T19:30:35.237Z,0
2023-04-28T19:32:12.574Z,0
2023-04-28T19:33:52.950Z,0
2023-04-28T19:35:33.379Z,0
2023-04-28T19:37:13.736Z,0
2023-04-28T19:38:57.206Z,0
2023-04-28T19:40:34.512Z,0
2023-04-28T19:42:14.908Z,0
2023-04-28T19:44:02.364Z,0
2023-04-28T19:45:35.692Z,0
2023-04-28T19:47:16.131Z,0
2023-04-28T19:48:59.607Z,0
2023-04-28T19:50:36.968Z,0
2023-04-28T19:52:17.403Z,0
2023-04-28T19:53:57.799Z,0
2023-04-28T19:55:38.120Z,0
2023-04-28T19:57:18.591Z,0
2023-04-28T19:58:59.028Z,0
2023-04-28T20:00:39.536Z,0
2023-04-28T20:02:19.959Z,0
2023-04-28T20:04:00.684Z,0
2023-04-28T20:05:40.829Z,0
2023-04-28T20:07:21.218Z,0
2023-04-28T20:09:01.582Z,0
2023-04-28T20:10:41.977Z,0
2023-04-28T20:12:22.461Z,0
2023-04-28T20:14:02.802Z,0
2023-04-28T20:15:43.260Z,0
2023-04-28T20:17:26.698Z,0
2023-04-28T20:19:04.075Z,0
2023-04-28T20:20:44.533Z,0
2023-04-28T20:22:24.950Z,0
2023-04-28T20:24:05.234Z,0
2023-04-28T20:25:45.569Z,0
2023-04-28T20:27:25.945Z,0
2023-04-28T20:29:08.287Z,0
2023-04-28T20:30:46.743Z,0
2023-04-28T20:32:27.152Z,0
2023-04-28T20:34:07.594Z,0
2023-04-28T20:35:48.034Z,0
2023-04-28T20:37:28.396Z,0
2023-04-28T20:39:08.839Z,0
2023-04-28T20:40:49.284Z,0
2023-04-28T20:42:29.622Z,0
2023-04-28T20:44:10.120Z,0
2023-04-28T20:45:50.617Z,0
2023-04-28T20:47:30.983Z,0
2023-04-28T20:49:11.351Z,0
2023-04-28T20:50:51.830Z,0
2023-04-28T20:52:32.254Z,0
2023-04-28T20:54:12.645Z,0
2023-04-28T20:55:53.109Z,0
2023-04-28T20:57:33.567Z,0
2023-04-28T20:59:13.943Z,0
2023-04-28T21:00:54.407Z,0
2023-04-28T21:02:34.775Z,0
2023-04-28T21:04:15.201Z,0
2023-04-28T21:05:55.482Z,0
2023-04-28T21:07:35.915Z,0
2023-04-28T21:09:16.328Z,0
2023-04-28T21:10:56.739Z,0
2023-04-28T21:12:37.147Z,0
2023-04-28T21:14:17.585Z,0
2023-04-28T21:15:58.149Z,0
2023-04-28T21:17:38.507Z,0
2023-04-28T21:19:18.864Z,0
2023-04-28T21:20:59.323Z,0
2023-04-28T21:22:39.765Z,0
2023-04-28T21:24:20.202Z,0
2023-04-28T21:26:00.634Z,0
2023-04-28T21:27:41.051Z,0
2023-04-28T21:29:21.397Z,0
2023-04-28T21:31:01.813Z,0
2023-04-28T21:32:42.288Z,0
2023-04-28T21:34:22.543Z,0
2023-04-28T21:36:02.903Z,0
2023-04-28T21:37:43.236Z,0
2023-04-28T21:39:23.620Z,0
2023-04-28T21:41:04.026Z,0
2023-04-28T21:42:44.413Z,0
2023-04-28T21:44:24.780Z,0
2023-04-28T21:46:05.261Z,0
2023-04-28T21:47:45.671Z,0
2023-04-28T21:49:26.103Z,0
2023-04-28T21:51:06.419Z,0
2023-04-28T21:52:46.801Z,0
2023-04-28T21:54:27.191Z,0
2023-04-28T21:56:07.539Z,0
2023-04-28T21:57:48.002Z,0
2023-04-28T21:59:28.346Z,0
2023-04-28T22:01:08.857Z,0
2023-04-28T22:02:49.283Z,0
2023-04-28T22:04:29.708Z,0
2023-04-28T22:06:10.085Z,0
2023-04-28T22:07:50.525Z,0
2023-04-28T22:09:30.897Z,0
2023-04-28T22:11:11.329Z,0
2023-04-28T22:12:51.706Z,0
2023-04-28T22:16:12.542Z,0
2023-04-28T22:17:52.930Z,0
2023-04-28T22:19:33.406Z,0
2023-04-28T22:21:13.876Z,0
2023-04-28T22:22:54.248Z,0
2023-04-28T22:24:34.724Z,0
2023-04-28T22:26:15.061Z,0
2023-04-28T22:27:55.384Z,0
2023-04-28T22:29:35.764Z,0
2023-04-28T22:31:16.191Z,0
2023-04-28T22:32:56.597Z,0
2023-04-28T22:34:36.902Z,0
2023-04-28T22:36:17.344Z,0
2023-04-28T22:37:57.797Z,0
2023-04-28T22:39:38.188Z,0
2023-04-28T22:41:18.544Z,0
2023-04-28T22:42:58.981Z,0
2023-04-28T22:44:39.373Z,0
2023-04-28T22:46:19.882Z,0
2023-04-28T22:48:00.265Z,0
2023-04-28T22:49:40.674Z,0
2023-04-28T22:51:21.112Z,0
2023-04-28T22:53:01.488Z,0
2023-04-28T22:54:41.969Z,0
2023-04-28T22:56:22.384Z,0
2023-04-28T22:58:02.833Z,0
2023-04-28T22:59:43.219Z,0
2023-04-28T23:01:23.662Z,0
2023-04-28T23:03:04.215Z,0
2023-04-28T23:04:44.716Z,0
2023-04-28T23:06:24.948Z,0
2023-04-28T23:08:05.245Z,0
2023-04-28T23:09:45.594Z,0
2023-04-28T23:11:26.056Z,0
2023-04-28T23:13:06.511Z,0
2023-04-28T23:14:46.875Z,0
2023-04-28T23:16:27.280Z,0
2023-04-28T23:18:07.676Z,0
2023-04-28T23:19:48.231Z,0
2023-04-28T23:21:28.412Z,0
2023-04-28T23:23:08.882Z,0
2023-04-28T23:24:49.329Z,0
2023-04-28T23:26:29.781Z,0
2023-04-28T23:28:10.233Z,0
2023-04-28T23:29:50.804Z,0
2023-04-28T23:31:31.155Z,0
2023-04-28T23:33:11.471Z,0
2023-04-28T23:34:51.873Z,0
2023-04-28T23:36:32.255Z,0
2023-04-28T23:38:12.667Z,0
2023-04-28T23:39:53.267Z,0
2023-04-28T23:41:33.495Z,0
2023-04-28T23:43:13.876Z,0
2023-04-28T23:44:54.259Z,0
2023-04-28T23:46:34.668Z,0